createdAt,value
2023-04-05T00:00:17.146Z,8.28
2023-04-05T00:02:44.204Z,8.12
2023-04-05T00:05:12.045Z,8.23
2023-04-05T00:07:39.590Z,8.25
2023-04-05T00:10:06.531Z,8.05
2023-04-05T00:12:33.272Z,8.07
2023-04-05T00:14:59.793Z,8.08
2023-04-05T00:17:26.362Z,8.11
2023-04-05T00:19:57.389Z,8.06
2023-04-05T00:22:26.509Z,7.92
2023-04-05T00:24:53.082Z,7.91
2023-04-05T00:27:20.270Z,8.01
2023-04-05T00:29:46.867Z,8.07
2023-04-05T00:32:13.582Z,8.07
2023-04-05T00:34:40.437Z,8.03
2023-04-05T00:37:06.985Z,8.01
2023-04-05T00:39:33.594Z,8.11
2023-04-05T00:42:03.405Z,7.94
2023-04-05T00:44:35.205Z,7.80
2023-04-05T00:47:03.541Z,7.91
2023-04-05T00:49:31.960Z,7.70
2023-04-05T00:51:58.863Z,7.71
2023-04-05T00:54:25.865Z,7.67
2023-04-05T00:56:55.805Z,7.62
2023-04-05T00:59:22.465Z,7.72
2023-04-05T01:01:55.339Z,7.65
2023-04-05T01:04:27.707Z,7.69
2023-04-05T01:07:09.397Z,7.68
2023-04-05T01:09:58.701Z,7.62
2023-04-05T01:12:33.216Z,7.58
2023-04-05T01:15:00.757Z,7.49
2023-04-05T01:17:30.091Z,7.49
2023-04-05T01:20:02.373Z,7.58
2023-04-05T01:23:16.305Z,7.57
2023-04-05T01:26:05.963Z,7.46
2023-04-05T01:28:57.690Z,7.51
2023-04-05T01:32:15.456Z,7.38
2023-04-05T01:35:04.424Z,7.33
2023-04-05T01:37:34.481Z,7.41
2023-04-05T01:40:01.831Z,7.41
2023-04-05T01:42:28.441Z,7.28
2023-04-05T01:44:56.755Z,7.20
2023-04-05T01:47:23.269Z,7.15
2023-04-05T01:49:50.124Z,7.07
2023-04-05T01:52:16.744Z,7.15
2023-04-05T01:54:43.294Z,7.14
2023-04-05T01:57:10.351Z,6.97
2023-04-05T01:59:36.880Z,7.04
2023-04-05T02:02:03.639Z,7.13
2023-04-05T02:04:30.357Z,7.10
2023-04-05T02:06:56.915Z,7.03
2023-04-05T02:09:23.414Z,7.02
2023-04-05T02:11:50.066Z,6.93
2023-04-05T02:14:16.617Z,6.85
2023-04-05T02:16:43.389Z,6.84
2023-04-05T02:19:10.512Z,6.78
2023-04-05T02:21:37.058Z,6.90
2023-04-05T02:24:03.756Z,6.72
2023-04-05T02:26:30.768Z,6.77
2023-04-05T02:28:57.576Z,6.71
2023-04-05T02:31:24.171Z,6.84
2023-04-05T02:33:51.295Z,6.84
2023-04-05T02:36:18.593Z,6.84
2023-04-05T02:38:45.366Z,6.78
2023-04-05T02:41:12.698Z,6.65
2023-04-05T02:43:39.663Z,6.55
2023-04-05T02:46:06.538Z,6.55
2023-04-05T02:48:33.098Z,6.61
2023-04-05T02:50:59.722Z,6.54
2023-04-05T02:53:26.304Z,6.46
2023-04-05T02:55:57.325Z,6.46
2023-04-05T02:58:24.614Z,6.45
2023-04-05T03:00:54.180Z,6.57
2023-04-05T03:03:21.714Z,6.34
2023-04-05T03:05:49.564Z,6.36
2023-04-05T03:08:19.574Z,6.29
2023-04-05T03:10:46.973Z,6.30
2023-04-05T03:13:14.862Z,6.35
2023-04-05T03:15:42.426Z,6.27
2023-04-05T03:18:09.784Z,6.26
2023-04-05T03:20:40.122Z,6.29
2023-04-05T03:23:09.009Z,6.22
2023-04-05T03:25:37.213Z,6.18
2023-04-05T03:28:05.758Z,6.12
2023-04-05T03:30:33.466Z,6.01
2023-04-05T03:33:03.083Z,6.22
2023-04-05T03:35:30.583Z,6.10
2023-04-05T03:37:57.468Z,5.94
2023-04-05T03:40:24.671Z,6.06
2023-04-05T03:42:51.347Z,5.96
2023-04-05T03:45:22.273Z,6.15
2023-04-05T03:47:51.029Z,5.95
2023-04-05T03:50:17.654Z,5.95
2023-04-05T03:52:46.951Z,5.97
2023-04-05T03:55:14.172Z,5.91
2023-04-05T03:57:41.683Z,5.86
2023-04-05T04:00:15.008Z,5.86
2023-04-05T04:02:46.484Z,5.80
2023-04-05T04:05:14.741Z,5.79
2023-04-05T04:07:42.761Z,5.89
2023-04-05T04:10:11.223Z,5.91
2023-04-05T04:12:38.485Z,5.81
2023-04-05T04:15:05.787Z,5.78
2023-04-05T04:17:34.583Z,5.72
2023-04-05T04:20:01.232Z,5.64
2023-04-05T04:22:33.146Z,5.69
2023-04-05T04:25:02.782Z,5.64
2023-04-05T04:27:30.477Z,5.54
2023-04-05T04:30:04.701Z,5.58
2023-04-05T04:32:49.771Z,5.54
2023-04-05T04:35:18.530Z,5.42
2023-04-05T04:37:47.484Z,5.49
2023-04-05T04:40:17.324Z,5.53
2023-04-05T04:42:46.848Z,5.48
2023-04-05T04:45:17.538Z,5.43
2023-04-05T04:47:47.199Z,5.47
2023-04-05T04:50:16.243Z,5.44
2023-04-05T04:52:42.941Z,5.48
2023-04-05T04:55:10.273Z,5.43
2023-04-05T04:57:36.865Z,5.39
2023-04-05T05:00:08.038Z,5.34
2023-04-05T05:02:34.803Z,5.34
2023-04-05T05:05:01.401Z,5.30
2023-04-05T05:07:28.935Z,5.31
2023-04-05T05:09:55.455Z,5.34
2023-04-05T05:12:22.203Z,5.23
2023-04-05T05:14:48.714Z,5.22
2023-04-05T05:17:15.523Z,5.32
2023-04-05T05:19:42.079Z,5.35
2023-04-05T05:22:08.712Z,5.26
2023-04-05T05:24:35.314Z,5.30
2023-04-05T05:27:01.890Z,5.23
2023-04-05T05:29:28.951Z,5.24
2023-04-05T05:31:55.845Z,5.24
2023-04-05T05:34:22.526Z,5.32
2023-04-05T05:36:49.055Z,5.25
2023-04-05T05:39:16.029Z,5.30
2023-04-05T05:41:42.608Z,5.23
2023-04-05T05:44:09.218Z,5.41
2023-04-05T05:46:35.826Z,5.40
2023-04-05T05:49:02.349Z,5.45
2023-04-05T05:51:28.998Z,5.49
2023-04-05T05:53:55.813Z,5.39
2023-04-05T05:56:22.648Z,5.42
2023-04-05T05:58:49.349Z,5.47
2023-04-05T06:01:15.972Z,5.44
2023-04-05T06:03:42.832Z,5.30
2023-04-05T06:06:11.468Z,5.32
2023-04-05T06:08:38.338Z,5.42
2023-04-05T06:11:05.016Z,5.31
2023-04-05T06:13:31.638Z,5.35
2023-04-05T06:16:01.086Z,5.37
2023-04-05T06:18:27.611Z,5.54
2023-04-05T06:20:55.818Z,5.47
2023-04-05T06:23:22.425Z,5.54
2023-04-05T06:25:48.962Z,5.32
2023-04-05T06:28:15.664Z,5.31
2023-04-05T06:30:42.654Z,5.33
2023-04-05T06:33:09.473Z,5.42
2023-04-05T06:35:36.213Z,5.60
2023-04-05T06:38:02.751Z,5.42
2023-04-05T06:40:29.331Z,5.44
2023-04-05T06:42:56.393Z,5.61
2023-04-05T06:45:23.187Z,5.56
2023-04-05T06:47:50.089Z,5.55
2023-04-05T06:50:16.816Z,5.58
2023-04-05T06:52:43.456Z,5.64
2023-04-05T06:55:10.229Z,5.68
2023-04-05T06:57:36.868Z,5.77
2023-04-05T07:00:09.347Z,5.83
2023-04-05T07:02:36.419Z,5.82
2023-04-05T07:05:05.776Z,6.00
2023-04-05T07:07:33.466Z,6.04
2023-04-05T07:10:00.081Z,6.09
2023-04-05T07:12:26.742Z,5.92
2023-04-05T07:14:53.486Z,5.94
2023-04-05T07:17:20.027Z,6.02
2023-04-05T07:19:46.830Z,6.08
2023-04-05T07:22:13.555Z,6.08
2023-04-05T07:24:40.216Z,6.00
2023-04-05T07:27:06.939Z,6.03
2023-04-05T07:29:38.239Z,6.10
2023-04-05T07:32:04.885Z,5.88
2023-04-05T07:34:31.405Z,6.03
2023-04-05T07:36:58.408Z,6.06
2023-04-05T07:39:25.513Z,6.19
2023-04-05T07:41:52.087Z,6.26
2023-04-05T07:44:18.823Z,6.17
2023-04-05T07:46:49.005Z,6.31
2023-04-05T07:49:15.942Z,6.39
2023-04-05T07:51:43.474Z,6.42
2023-04-05T07:54:10.372Z,6.30
2023-04-05T07:56:38.322Z,6.32
2023-04-05T07:59:04.881Z,6.43
2023-04-05T08:01:31.972Z,6.52
2023-04-05T08:03:58.826Z,6.54
2023-04-05T08:06:27.384Z,6.52
2023-04-05T08:08:54.008Z,6.53
2023-04-05T08:11:21.540Z,6.68
2023-04-05T08:13:48.339Z,6.68
2023-04-05T08:16:14.984Z,6.78
2023-04-05T08:18:41.649Z,6.89
2023-04-05T08:21:08.253Z,7.07
2023-04-05T08:23:34.870Z,7.04
2023-04-05T08:26:02.179Z,6.92
2023-04-05T08:28:28.756Z,6.87
2023-04-05T08:30:56.521Z,7.12
2023-04-05T08:33:23.845Z,7.09
2023-04-05T08:35:50.423Z,6.99
2023-04-05T08:38:17.029Z,7.23
2023-04-05T08:40:45.921Z,7.32
2023-04-05T08:43:40.651Z,7.52
2023-04-05T08:46:14.911Z,7.54
2023-04-05T08:48:42.811Z,7.59
2023-04-05T08:51:10.343Z,7.54
2023-04-05T08:53:37.133Z,7.53
2023-04-05T08:56:04.723Z,7.46
2023-04-05T08:58:34.171Z,7.45
2023-04-05T09:01:02.263Z,7.64
2023-04-05T09:03:37.887Z,7.67
2023-04-05T09:06:10.204Z,7.88
2023-04-05T09:08:38.803Z,7.99
2023-04-05T09:11:05.653Z,8.20
2023-04-05T09:13:32.256Z,8.04
2023-04-05T09:16:02.253Z,8.08
2023-04-05T09:18:28.878Z,8.15
2023-04-05T09:21:07.911Z,8.42
2023-04-05T09:23:35.024Z,8.39
2023-04-05T09:26:17.059Z,8.27
2023-04-05T09:28:43.875Z,8.50
2023-04-05T09:31:29.139Z,8.60
2023-04-05T09:34:02.693Z,8.61
2023-04-05T09:36:29.460Z,8.76
2023-04-05T09:39:09.546Z,8.83
2023-04-05T09:41:37.534Z,8.87
2023-04-05T09:44:04.284Z,9.07
2023-04-05T09:46:32.326Z,9.06
2023-04-05T09:48:58.987Z,9.09
2023-04-05T09:51:32.671Z,9.18
2023-04-05T09:54:04.906Z,9.27
2023-04-05T09:56:37.038Z,9.43
2023-04-05T09:59:22.132Z,9.40
2023-04-05T10:01:52.232Z,9.67
2023-04-05T10:04:24.395Z,9.52
2023-04-05T10:06:51.699Z,9.54
2023-04-05T10:09:19.534Z,9.58
2023-04-05T10:11:46.310Z,9.72
2023-04-05T10:14:12.837Z,9.98
2023-04-05T10:16:53.821Z,10.11
2023-04-05T10:19:32.274Z,9.92
2023-04-05T10:22:02.460Z,10.15
2023-04-05T10:24:44.155Z,10.25
2023-04-05T10:27:31.073Z,10.09
2023-04-05T10:30:25.666Z,10.15
2023-04-05T10:33:32.989Z,10.32
2023-04-05T10:36:21.541Z,10.37
2023-04-05T10:39:04.698Z,10.85
2023-04-05T10:41:36.444Z,10.77
2023-04-05T10:44:14.948Z,10.84
2023-04-05T10:46:52.751Z,10.80
2023-04-05T10:49:31.174Z,10.74
2023-04-05T10:51:58.591Z,10.70
2023-04-05T10:54:25.333Z,11.05
2023-04-05T10:56:52.163Z,10.98
2023-04-05T10:59:19.019Z,11.13
2023-04-05T11:01:47.347Z,10.74
2023-04-05T11:04:17.946Z,11.10
2023-04-05T11:06:48.126Z,10.95
2023-04-05T11:09:20.969Z,11.10
2023-04-05T11:11:49.499Z,11.20
2023-04-05T11:14:19.091Z,11.31
2023-04-05T11:16:49.338Z,11.34
2023-04-05T11:19:19.278Z,11.42
2023-04-05T11:21:46.012Z,11.49
2023-04-05T11:24:17.310Z,11.40
2023-04-05T11:26:43.782Z,11.71
2023-04-05T11:29:11.589Z,11.72
2023-04-05T11:31:59.564Z,11.54
2023-04-05T11:34:26.210Z,11.57
2023-04-05T11:36:52.764Z,11.83
2023-04-05T11:39:19.348Z,11.92
2023-04-05T11:41:54.485Z,11.76
2023-04-05T11:44:22.362Z,11.96
2023-04-05T11:46:49.213Z,12.01
2023-04-05T11:49:16.216Z,11.97
2023-04-05T11:51:44.510Z,11.99
2023-04-05T11:54:11.264Z,12.23
2023-04-05T11:56:38.154Z,12.15
2023-04-05T11:59:04.691Z,12.02
2023-04-05T12:01:31.386Z,12.21
2023-04-05T12:03:58.033Z,12.47
2023-04-05T12:06:26.250Z,12.38
2023-04-05T12:08:53.291Z,12.40
2023-04-05T12:11:31.300Z,12.34
2023-04-05T12:13:59.891Z,12.42
2023-04-05T12:16:27.326Z,12.41
2023-04-05T12:18:55.918Z,12.59
2023-04-05T12:21:23.255Z,12.74
2023-04-05T12:23:51.712Z,12.93
2023-04-05T12:26:18.902Z,13.03
2023-04-05T12:28:56.673Z,13.26
2023-04-05T12:31:47.166Z,12.74
2023-04-05T12:34:15.217Z,12.93
2023-04-05T12:36:47.058Z,12.78
2023-04-05T12:39:17.531Z,12.83
2023-04-05T12:41:44.065Z,13.11
2023-04-05T12:44:27.971Z,13.31
2023-04-05T12:47:01.218Z,13.21
2023-04-05T12:49:28.460Z,13.21
2023-04-05T12:52:00.926Z,12.99
2023-04-05T12:54:27.440Z,13.04
2023-04-05T12:56:57.206Z,13.36
2023-04-05T12:59:24.732Z,13.71
2023-04-05T13:01:51.598Z,13.72
2023-04-05T13:04:19.174Z,13.29
2023-04-05T13:06:48.011Z,13.36
2023-04-05T13:09:14.751Z,13.45
2023-04-05T13:11:41.312Z,13.74
2023-04-05T13:14:08.173Z,13.81
2023-04-05T13:16:34.975Z,14.04
2023-04-05T13:19:01.608Z,13.82
2023-04-05T13:21:28.156Z,13.85
2023-04-05T13:23:54.715Z,13.80
2023-04-05T13:26:21.988Z,13.90
2023-04-05T13:28:48.969Z,14.05
2023-04-05T13:31:16.167Z,14.05
2023-04-05T13:33:43.577Z,13.88
2023-04-05T13:36:12.588Z,13.84
2023-04-05T13:38:39.502Z,13.91
2023-04-05T13:41:06.247Z,14.20
2023-04-05T13:43:32.797Z,14.41
2023-04-05T13:45:59.477Z,14.46
2023-04-05T13:48:26.044Z,14.11
2023-04-05T13:50:52.544Z,14.11
2023-04-05T13:53:19.065Z,14.05
2023-04-05T13:55:45.658Z,13.82
2023-04-05T13:58:14.358Z,13.83
2023-04-05T14:00:41.510Z,14.39
2023-04-05T14:03:08.477Z,14.49
2023-04-05T14:05:35.107Z,14.45
2023-04-05T14:08:01.763Z,14.29
2023-04-05T14:10:28.289Z,14.52
2023-04-05T14:12:54.796Z,14.58
2023-04-05T14:15:21.970Z,14.39
2023-04-05T14:17:48.627Z,14.16
2023-04-05T14:20:15.378Z,14.51
2023-04-05T14:22:42.010Z,14.46
2023-04-05T14:25:09.108Z,14.82
2023-04-05T14:27:41.241Z,14.92
2023-04-05T14:30:09.284Z,14.65
2023-04-05T14:32:35.898Z,14.78
2023-04-05T14:35:02.547Z,14.56
2023-04-05T14:37:29.137Z,14.83
2023-04-05T14:39:55.725Z,14.72
2023-04-05T14:42:23.821Z,14.65
2023-04-05T14:44:52.767Z,14.67
2023-04-05T14:47:19.579Z,14.55
2023-04-05T14:49:46.191Z,14.55
2023-04-05T14:52:13.078Z,14.91
2023-04-05T14:54:39.670Z,15.02
2023-04-05T14:57:06.240Z,15.05
2023-04-05T14:59:32.846Z,14.99
2023-04-05T15:01:59.478Z,15.02
2023-04-05T15:04:26.216Z,15.05
2023-04-05T15:06:52.818Z,14.82
2023-04-05T15:09:19.432Z,14.80
2023-04-05T15:11:46.193Z,14.68
2023-04-05T15:14:21.380Z,14.76
2023-04-05T15:16:57.500Z,14.90
2023-04-05T15:19:24.154Z,14.85
2023-04-05T15:21:50.951Z,14.97
2023-04-05T15:24:17.548Z,15.19
2023-04-05T15:26:44.124Z,15.01
2023-04-05T15:29:10.733Z,15.18
2023-04-05T15:31:37.388Z,15.32
2023-04-05T15:34:04.741Z,15.31
2023-04-05T15:36:32.341Z,15.23
2023-04-05T15:38:58.882Z,15.22
2023-04-05T15:41:25.605Z,15.24
2023-04-05T15:43:52.226Z,15.11
2023-04-05T15:46:19.015Z,15.13
2023-04-05T15:48:45.754Z,15.24
2023-04-05T15:51:12.479Z,15.11
2023-04-05T15:53:39.331Z,15.01
2023-04-05T15:56:06.346Z,15.19
2023-04-05T15:58:32.981Z,15.20
2023-04-05T16:00:59.723Z,15.41
2023-04-05T16:03:26.484Z,15.32
2023-04-05T16:05:53.159Z,15.22
2023-04-05T16:08:19.844Z,15.37
2023-04-05T16:10:46.481Z,15.38
2023-04-05T16:13:13.059Z,15.36
2023-04-05T16:15:39.733Z,15.56
2023-04-05T16:18:06.745Z,15.87
2023-04-05T16:20:33.396Z,16.26
2023-04-05T16:23:00.424Z,16.15
2023-04-05T16:25:27.125Z,16.83
2023-04-05T16:27:53.955Z,16.40
2023-04-05T16:30:20.738Z,16.59
2023-04-05T16:32:49.781Z,16.71
2023-04-05T16:35:16.665Z,16.55
2023-04-05T16:37:44.044Z,16.71
2023-04-05T16:40:11.679Z,16.45
2023-04-05T16:42:38.454Z,16.81
2023-04-05T16:45:06.525Z,16.61
2023-04-05T16:47:33.148Z,16.51
2023-04-05T16:49:59.734Z,16.79
2023-04-05T16:52:26.509Z,16.51
2023-04-05T16:54:53.101Z,16.58
2023-04-05T16:57:19.737Z,15.95
2023-04-05T16:59:46.639Z,16.09
2023-04-05T17:02:13.546Z,15.96
2023-04-05T17:04:40.281Z,16.17
2023-04-05T17:07:07.022Z,15.96
2023-04-05T17:09:33.634Z,16.09
2023-04-05T17:12:00.248Z,15.74
2023-04-05T17:14:27.103Z,15.86
2023-04-05T17:16:54.587Z,15.70
2023-04-05T17:19:21.211Z,15.67
2023-04-05T17:21:48.835Z,15.52
2023-04-05T17:24:19.282Z,15.67
2023-04-05T17:26:46.480Z,15.64
2023-04-05T17:29:13.898Z,15.35
2023-04-05T17:31:42.027Z,15.26
2023-04-05T17:34:13.113Z,15.27
2023-04-05T17:36:40.263Z,15.22
2023-04-05T17:39:07.062Z,15.03
2023-04-05T17:41:34.533Z,15.18
2023-04-05T17:44:01.645Z,15.27
2023-04-05T17:46:40.175Z,15.31
2023-04-05T17:49:08.317Z,15.48
2023-04-05T17:51:37.741Z,15.53
2023-04-05T17:54:04.990Z,15.25
2023-04-05T17:56:31.746Z,14.93
2023-04-05T17:58:58.503Z,14.89
2023-04-05T18:01:25.327Z,14.81
2023-04-05T18:03:52.094Z,14.62
2023-04-05T18:06:20.091Z,14.61
2023-04-05T18:08:46.925Z,14.51
2023-04-05T18:11:13.593Z,14.44
2023-04-05T18:13:40.348Z,14.38
2023-04-05T18:16:06.961Z,14.33
2023-04-05T18:18:33.667Z,14.34
2023-04-05T18:21:03.123Z,14.29
2023-04-05T18:23:29.712Z,14.23
2023-04-05T18:25:56.387Z,14.13
2023-04-05T18:28:23.615Z,14.08
2023-04-05T18:30:51.344Z,14.08
2023-04-05T18:33:18.316Z,14.02
2023-04-05T18:35:51.863Z,13.99
2023-04-05T18:38:19.369Z,13.88
2023-04-05T18:40:46.148Z,13.86
2023-04-05T18:43:13.064Z,13.76
2023-04-05T18:45:39.798Z,13.67
2023-04-05T18:48:07.210Z,13.57
2023-04-05T18:50:35.059Z,13.62
2023-04-05T18:53:02.782Z,13.54
2023-04-05T18:55:29.387Z,13.48
2023-04-05T18:57:56.117Z,13.43
2023-04-05T19:00:22.831Z,13.35
2023-04-05T19:02:49.442Z,13.30
2023-04-05T19:05:16.119Z,13.24
2023-04-05T19:07:42.778Z,13.21
2023-04-05T19:10:10.234Z,13.20
2023-04-05T19:12:36.853Z,13.11
2023-04-05T19:15:03.658Z,13.03
2023-04-05T19:17:31.140Z,12.95
2023-04-05T19:19:57.744Z,13.03
2023-04-05T19:22:24.307Z,12.97
2023-04-05T19:24:50.931Z,12.95
2023-04-05T19:27:17.543Z,12.96
2023-04-05T19:29:44.138Z,12.89
2023-04-05T19:32:11.324Z,12.93
2023-04-05T19:34:38.989Z,12.93
2023-04-05T19:37:06.776Z,12.78
2023-04-05T19:39:36.423Z,12.72
2023-04-05T19:42:03.141Z,12.64
2023-04-05T19:44:54.863Z,12.52
2023-04-05T19:47:22.019Z,12.45
2023-04-05T19:49:50.273Z,12.39
2023-04-05T19:52:37.811Z,12.31
2023-04-05T19:55:25.960Z,12.26
2023-04-05T19:57:52.674Z,12.15
2023-04-05T20:00:52.028Z,12.15
2023-04-05T20:03:31.925Z,12.07
2023-04-05T20:06:11.839Z,12.07
2023-04-05T20:08:43.363Z,12.07
2023-04-05T20:11:16.034Z,12.05
2023-04-05T20:13:49.033Z,12.02
2023-04-05T20:16:16.859Z,11.95
2023-04-05T20:18:48.204Z,11.97
2023-04-05T20:21:16.151Z,11.93
2023-04-05T20:23:44.365Z,11.87
2023-04-05T20:26:16.045Z,11.81
2023-04-05T20:28:54.054Z,11.81
2023-04-05T20:31:29.200Z,11.73
2023-04-05T20:34:07.406Z,11.66
2023-04-05T20:36:36.947Z,11.64
2023-04-05T20:39:05.362Z,11.62
2023-04-05T20:41:32.229Z,11.54
2023-04-05T20:43:59.817Z,11.54
2023-04-05T20:46:27.957Z,11.50
2023-04-05T20:48:55.163Z,11.48
2023-04-05T20:51:21.848Z,11.45
2023-04-05T20:53:48.437Z,11.40
2023-04-05T20:56:16.084Z,11.39
2023-04-05T20:58:42.777Z,11.38
2023-04-05T21:01:10.382Z,11.34
2023-04-05T21:03:39.488Z,11.26
2023-04-05T21:06:08.335Z,11.23
2023-04-05T21:08:36.499Z,11.22
2023-04-05T21:11:03.805Z,11.15
2023-04-05T21:13:30.508Z,11.13
2023-04-05T21:15:57.880Z,11.12
2023-04-05T21:18:25.599Z,11.13
2023-04-05T21:20:53.675Z,11.10
2023-04-05T21:23:22.674Z,11.06
2023-04-05T21:25:50.313Z,10.95
2023-04-05T21:28:17.094Z,10.98
2023-04-05T21:30:44.122Z,10.95
2023-04-05T21:33:11.159Z,10.92
2023-04-05T21:35:38.287Z,10.86
2023-04-05T21:38:05.616Z,10.78
2023-04-05T21:40:32.884Z,10.78
2023-04-05T21:43:00.000Z,10.70
2023-04-05T21:45:27.287Z,10.67
2023-04-05T21:47:54.366Z,10.60
2023-04-05T21:50:21.402Z,10.57
2023-04-05T21:52:48.424Z,10.55
2023-04-05T21:55:15.306Z,10.52
2023-04-05T21:57:42.049Z,10.45
2023-04-05T22:00:12.294Z,10.44
2023-04-05T22:02:39.459Z,10.43
2023-04-05T22:05:07.589Z,10.42
2023-04-05T22:07:35.580Z,10.40
2023-04-05T22:10:03.277Z,10.39
2023-04-05T22:12:29.951Z,10.34
2023-04-05T22:14:56.737Z,10.32
2023-04-05T22:17:23.407Z,10.27
2023-04-05T22:19:50.530Z,10.29
2023-04-05T22:22:17.547Z,10.38
2023-04-05T22:24:44.671Z,10.38
2023-04-05T22:27:12.162Z,10.42
2023-04-05T22:29:39.230Z,10.31
2023-04-05T22:32:06.560Z,10.28
2023-04-05T22:34:33.636Z,10.25
2023-04-05T22:37:00.572Z,10.16
2023-04-05T22:39:27.765Z,10.15
2023-04-05T22:41:54.794Z,10.13
2023-04-05T22:44:21.753Z,10.08
2023-04-05T22:46:48.411Z,10.01
2023-04-05T22:49:14.997Z,9.99
2023-04-05T22:51:41.627Z,10.05
2023-04-05T22:54:08.227Z,10.03
2023-04-05T22:56:34.816Z,10.10
2023-04-05T22:59:01.485Z,10.07
2023-04-05T23:01:28.246Z,10.05
2023-04-05T23:03:54.881Z,10.17
2023-04-05T23:06:22.097Z,10.07
2023-04-05T23:08:48.713Z,10.06
2023-04-05T23:11:15.534Z,9.97
2023-04-05T23:13:42.118Z,9.93
2023-04-05T23:16:08.791Z,9.95
2023-04-05T23:18:35.657Z,9.90
2023-04-05T23:21:02.308Z,9.95
2023-04-05T23:23:28.888Z,9.99
2023-04-05T23:25:55.525Z,9.92
2023-04-05T23:28:22.250Z,9.86
2023-04-05T23:30:49.274Z,9.88
2023-04-05T23:33:16.322Z,9.80
2023-04-05T23:35:43.184Z,9.98
2023-04-05T23:38:09.884Z,9.98
2023-04-05T23:40:36.488Z,9.84
2023-04-05T23:43:03.086Z,9.81
2023-04-05T23:45:29.707Z,9.72
2023-04-05T23:47:56.508Z,9.68
2023-04-05T23:50:23.553Z,9.67
2023-04-05T23:52:50.199Z,9.65
2023-04-05T23:55:16.877Z,9.64
2023-04-05T23:57:43.642Z,9.58
